createdAt,value
2018-08-07T00:01:48.233Z,10.60
2018-08-07T00:04:16.296Z,9.80
2018-08-07T00:06:44.368Z,8.68
2018-08-07T00:09:12.780Z,10.23
2018-08-07T00:11:40.845Z,9.40
2018-08-07T00:14:09.060Z,10.10
2018-08-07T00:16:37.287Z,9.70
2018-08-07T00:19:05.381Z,10.48
2018-08-07T00:21:33.456Z,10.18
2018-08-07T00:24:01.508Z,8.85
2018-08-07T00:26:29.673Z,8.85
2018-08-07T00:28:57.752Z,10.68
2018-08-07T00:31:25.804Z,9.25
2018-08-07T00:33:53.876Z,10.13
2018-08-07T00:36:21.936Z,10.25
2018-08-07T00:38:50.001Z,9.33
2018-08-07T00:41:18.057Z,10.35
2018-08-07T00:43:46.137Z,9.93
2018-08-07T00:46:14.193Z,9.38
2018-08-07T00:48:42.260Z,10.90
2018-08-07T00:51:10.325Z,10.90
2018-08-07T00:53:38.392Z,10.40
2018-08-07T00:56:06.457Z,10.78
2018-08-07T00:58:34.524Z,11.15
2018-08-07T01:01:02.582Z,11.68
2018-08-07T01:03:30.652Z,11.10
2018-08-07T01:05:58.732Z,10.93
2018-08-07T01:08:26.844Z,10.72
2018-08-07T01:10:54.888Z,10.48
2018-08-07T01:13:22.940Z,10.95
2018-08-07T01:15:50.990Z,10.98
2018-08-07T01:18:19.032Z,10.35
2018-08-07T01:20:47.072Z,9.78
2018-08-07T01:23:15.122Z,9.98
2018-08-07T01:25:43.168Z,10.68
2018-08-07T01:28:11.212Z,11.03
2018-08-07T01:30:39.250Z,10.80
2018-08-07T01:33:07.300Z,10.68
2018-08-07T01:35:35.336Z,10.90
2018-08-07T01:38:03.388Z,10.65
2018-08-07T01:40:31.440Z,10.65
2018-08-07T01:42:59.492Z,11.40
2018-08-07T01:45:27.536Z,10.53
2018-08-07T01:47:55.575Z,9.20
2018-08-07T01:50:23.635Z,10.03
2018-08-07T01:52:51.684Z,11.90
2018-08-07T01:55:22.173Z,11.05
2018-08-07T01:57:50.213Z,13.65
2018-08-07T02:00:18.284Z,11.83
2018-08-07T02:02:46.373Z,11.38
2018-08-07T02:05:14.430Z,11.43
2018-08-07T02:07:43.024Z,13.35
2018-08-07T02:10:14.664Z,11.95
2018-08-07T02:12:42.792Z,12.33
2018-08-07T02:15:11.659Z,11.48
2018-08-07T02:17:39.724Z,12.18
2018-08-07T02:20:14.072Z,11.33
2018-08-07T02:22:42.781Z,12.15
2018-08-07T02:25:12.604Z,12.68
2018-08-07T02:27:40.668Z,12.13
2018-08-07T02:30:10.738Z,12.35
2018-08-07T02:32:39.112Z,10.50
2018-08-07T02:35:08.243Z,10.72
2018-08-07T02:37:36.311Z,11.88
2018-08-07T02:40:05.664Z,11.68
2018-08-07T02:42:33.737Z,11.40
2018-08-07T02:45:01.810Z,11.50
2018-08-07T02:47:29.863Z,10.35
2018-08-07T02:49:57.937Z,11.70
2018-08-07T02:52:26.002Z,9.93
2018-08-07T02:54:54.067Z,12.15
2018-08-07T02:57:22.130Z,11.28
2018-08-07T02:59:50.198Z,13.30
2018-08-07T03:02:18.264Z,11.90
2018-08-07T03:04:46.320Z,12.00
2018-08-07T03:07:14.372Z,13.50
2018-08-07T03:09:42.425Z,12.43
2018-08-07T03:12:10.474Z,12.50
2018-08-07T03:14:38.540Z,12.93
2018-08-07T03:17:06.620Z,13.32
2018-08-07T03:19:34.635Z,12.63
2018-08-07T03:22:02.809Z,13.00
2018-08-07T03:24:30.860Z,13.00
2018-08-07T03:26:58.900Z,12.98
2018-08-07T03:29:26.956Z,13.30
2018-08-07T03:31:55.003Z,12.88
2018-08-07T03:34:23.052Z,13.62
2018-08-07T03:36:51.090Z,13.05
2018-08-07T03:39:19.144Z,11.95
2018-08-07T03:41:47.197Z,11.93
2018-08-07T03:44:15.248Z,12.15
2018-08-07T03:46:43.293Z,11.80
2018-08-07T03:49:11.364Z,12.50
2018-08-07T03:51:39.384Z,13.98
2018-08-07T03:54:07.445Z,12.10
2018-08-07T03:56:35.493Z,13.03
2018-08-07T03:59:03.620Z,12.50
2018-08-07T04:01:31.620Z,14.00
2018-08-07T04:03:59.681Z,13.95
2018-08-07T04:06:27.732Z,14.35
2018-08-07T04:08:55.808Z,14.28
2018-08-07T04:11:23.936Z,13.80
2018-08-07T04:13:51.958Z,12.85
2018-08-07T04:16:20.013Z,14.50
2018-08-07T04:18:48.076Z,12.85
2018-08-07T04:21:16.153Z,14.00
2018-08-07T04:23:44.601Z,13.40
2018-08-07T04:26:12.708Z,12.00
2018-08-07T04:28:40.712Z,14.05
2018-08-07T04:31:08.781Z,12.88
2018-08-07T04:33:36.840Z,13.00
2018-08-07T04:36:04.909Z,13.48
2018-08-07T04:38:32.977Z,14.25
2018-08-07T04:41:01.043Z,14.03
2018-08-07T04:43:29.144Z,14.15
2018-08-07T04:45:57.278Z,11.85
2018-08-07T04:48:25.284Z,12.18
2018-08-07T04:50:53.356Z,12.95
2018-08-07T04:53:21.419Z,13.45
2018-08-07T04:55:49.504Z,14.33
2018-08-07T04:58:17.565Z,13.00
2018-08-07T05:00:45.636Z,11.85
2018-08-07T05:03:13.704Z,13.43
2018-08-07T05:05:41.776Z,13.00
2018-08-07T05:08:09.843Z,13.62
2018-08-07T05:10:37.981Z,14.87
2018-08-07T05:13:05.984Z,13.72
2018-08-07T05:15:34.052Z,12.75
2018-08-07T05:18:02.100Z,12.98
2018-08-07T05:20:30.167Z,13.45
2018-08-07T05:22:58.229Z,12.60
2018-08-07T05:25:26.292Z,13.25
2018-08-07T05:27:54.356Z,14.70
2018-08-07T05:30:22.428Z,11.80
2018-08-07T05:32:50.492Z,13.15
2018-08-07T05:35:18.564Z,12.50
2018-08-07T05:37:46.628Z,13.68
2018-08-07T05:40:14.694Z,14.15
2018-08-07T05:42:42.813Z,13.58
2018-08-07T05:45:12.845Z,11.40
2018-08-07T05:47:40.910Z,12.25
2018-08-07T05:50:12.428Z,12.07
2018-08-07T05:52:40.404Z,12.82
2018-08-07T05:55:08.748Z,13.10
2018-08-07T05:57:36.801Z,13.90
2018-08-07T06:00:09.036Z,13.38
2018-08-07T06:02:37.101Z,11.95
2018-08-07T06:05:05.816Z,12.95
2018-08-07T06:07:33.868Z,13.40
2018-08-07T06:10:01.913Z,12.68
2018-08-07T06:12:29.956Z,12.28
2018-08-07T06:14:58.008Z,12.75
2018-08-07T06:17:26.054Z,13.00
2018-08-07T06:19:54.096Z,11.55
2018-08-07T06:22:22.141Z,11.73
2018-08-07T06:24:50.192Z,11.83
2018-08-07T06:27:18.240Z,11.78
2018-08-07T06:29:46.293Z,11.40
2018-08-07T06:32:14.379Z,9.95
2018-08-07T06:34:42.424Z,8.18
2018-08-07T06:37:10.283Z,8.48
2018-08-07T06:39:38.320Z,7.87
2018-08-07T06:42:06.384Z,8.10
2018-08-07T06:44:34.429Z,6.60
2018-08-07T06:47:02.492Z,6.70
2018-08-07T06:49:30.536Z,6.57
2018-08-07T06:51:58.596Z,6.03
2018-08-07T06:54:26.644Z,6.03
2018-08-07T06:56:54.802Z,5.93
2018-08-07T06:59:22.843Z,5.97
2018-08-07T07:01:50.887Z,6.33
2018-08-07T07:04:18.969Z,6.00
2018-08-07T07:06:47.040Z,6.60
2018-08-07T07:09:15.104Z,5.90
2018-08-07T07:11:43.168Z,6.73
2018-08-07T07:14:11.228Z,6.33
2018-08-07T07:16:39.299Z,6.60
2018-08-07T07:19:07.356Z,6.17
2018-08-07T07:21:35.427Z,6.57
2018-08-07T07:24:03.490Z,6.20
2018-08-07T07:26:31.558Z,6.10
2018-08-07T07:28:59.600Z,7.43
2018-08-07T07:31:27.667Z,6.10
2018-08-07T07:33:55.728Z,6.47
2018-08-07T07:36:23.788Z,5.90
2018-08-07T07:38:51.854Z,5.97
2018-08-07T07:41:19.927Z,6.17
2018-08-07T07:43:47.983Z,5.40
2018-08-07T07:46:16.077Z,5.50
2018-08-07T07:48:44.132Z,6.50
2018-08-07T07:51:12.193Z,7.63
2018-08-07T07:53:40.244Z,6.67
2018-08-07T07:56:08.312Z,6.73
2018-08-07T07:58:36.374Z,6.80
2018-08-07T08:01:04.440Z,6.27
2018-08-07T08:03:32.533Z,6.27
2018-08-07T08:06:00.671Z,5.77
2018-08-07T08:08:28.670Z,6.10
2018-08-07T08:10:56.716Z,5.93
2018-08-07T08:13:24.784Z,5.60
2018-08-07T08:15:52.860Z,5.40
2018-08-07T08:18:20.936Z,5.97
2018-08-07T08:20:49.039Z,5.20
2018-08-07T08:23:17.159Z,5.30
2018-08-07T08:25:45.271Z,5.07
2018-08-07T08:28:13.340Z,4.90
2018-08-07T08:30:41.413Z,5.40
2018-08-07T08:33:09.484Z,4.83
2018-08-07T08:35:37.602Z,5.73
2018-08-07T08:38:05.905Z,5.20
2018-08-07T08:40:33.968Z,5.47
2018-08-07T08:43:02.031Z,6.00
2018-08-07T08:45:30.094Z,5.77
2018-08-07T08:47:59.296Z,5.77
2018-08-07T08:50:27.801Z,6.53
2018-08-07T08:52:55.868Z,5.97
2018-08-07T08:55:23.928Z,6.70
2018-08-07T08:57:52.004Z,6.43
2018-08-07T09:00:23.336Z,7.33
2018-08-07T09:02:51.724Z,5.50
2018-08-07T09:05:19.787Z,6.23
2018-08-07T09:07:47.864Z,6.00
2018-08-07T09:10:19.421Z,6.20
2018-08-07T09:12:47.773Z,5.27
2018-08-07T09:15:15.972Z,5.63
2018-08-07T09:17:44.040Z,6.00
2018-08-07T09:20:15.832Z,5.60
2018-08-07T09:22:44.136Z,5.47
2018-08-07T09:25:12.458Z,5.60
2018-08-07T09:27:41.125Z,5.73
2018-08-07T09:30:11.500Z,5.60
2018-08-07T09:32:39.744Z,5.67
2018-08-07T09:35:07.844Z,5.60
2018-08-07T09:37:36.232Z,6.23
2018-08-07T09:40:06.126Z,5.80
2018-08-07T09:42:34.149Z,5.63
2018-08-07T09:45:02.233Z,6.13
2018-08-07T09:47:30.280Z,6.03
2018-08-07T09:49:58.395Z,6.40
2018-08-07T09:52:26.482Z,6.30
2018-08-07T09:54:54.523Z,5.50
2018-08-07T09:57:22.737Z,5.80
2018-08-07T09:59:50.807Z,6.53
2018-08-07T10:02:23.892Z,6.20
2018-08-07T10:04:51.981Z,5.97
2018-08-07T10:07:20.216Z,6.60
2018-08-07T10:09:48.293Z,5.70
2018-08-07T10:12:16.352Z,6.53
2018-08-07T10:14:44.569Z,5.73
2018-08-07T10:17:12.624Z,5.83
2018-08-07T10:19:40.732Z,5.57
2018-08-07T10:22:08.796Z,6.07
2018-08-07T10:24:36.872Z,5.97
2018-08-07T10:27:04.941Z,6.20
2018-08-07T10:29:33.009Z,6.30
2018-08-07T10:32:01.078Z,7.13
2018-08-07T10:34:29.145Z,6.13
2018-08-07T10:36:57.296Z,6.43
2018-08-07T10:39:25.147Z,6.80
2018-08-07T10:41:53.228Z,6.57
2018-08-07T10:44:21.299Z,6.27
2018-08-07T10:46:49.388Z,6.10
2018-08-07T10:49:17.456Z,6.13
2018-08-07T10:51:45.541Z,6.40
2018-08-07T10:54:13.611Z,6.47
2018-08-07T10:56:41.689Z,6.30
2018-08-07T10:59:09.749Z,5.70
2018-08-07T11:01:37.811Z,6.53
2018-08-07T11:04:06.024Z,6.73
2018-08-07T11:06:34.054Z,6.50
2018-08-07T11:09:02.152Z,6.37
2018-08-07T11:11:30.189Z,6.10
2018-08-07T11:13:58.287Z,6.13
2018-08-07T11:16:26.329Z,5.63
2018-08-07T11:18:54.381Z,6.13
2018-08-07T11:21:22.412Z,5.80
2018-08-07T11:23:50.456Z,6.63
2018-08-07T11:26:18.496Z,6.67
2018-08-07T11:28:46.556Z,5.50
2018-08-07T11:31:14.600Z,6.47
2018-08-07T11:33:42.652Z,5.80
2018-08-07T11:36:10.699Z,6.00
2018-08-07T11:38:38.744Z,6.40
2018-08-07T11:41:06.796Z,6.67
2018-08-07T11:44:12.485Z,6.50
2018-08-07T11:46:40.528Z,7.83
2018-08-07T11:49:08.584Z,6.40
2018-08-07T11:51:36.628Z,6.93
2018-08-07T11:54:04.680Z,7.30
2018-08-07T11:56:32.720Z,6.90
2018-08-07T11:59:00.770Z,5.93
2018-08-07T12:01:28.815Z,7.50
2018-08-07T12:03:56.869Z,7.67
2018-08-07T12:06:24.909Z,7.40
2018-08-07T12:08:52.979Z,6.43
2018-08-07T12:11:21.044Z,6.80
2018-08-07T12:13:49.104Z,6.60
2018-08-07T12:16:17.185Z,6.50
2018-08-07T12:18:45.248Z,7.33
2018-08-07T12:21:13.312Z,6.53
2018-08-07T12:23:41.379Z,6.03
2018-08-07T12:26:09.444Z,6.97
2018-08-07T12:28:37.507Z,7.37
2018-08-07T12:31:05.604Z,6.50
2018-08-07T12:33:33.684Z,6.97
2018-08-07T12:36:01.752Z,7.20
2018-08-07T12:38:29.819Z,6.77
2018-08-07T12:40:57.877Z,7.53
2018-08-07T12:43:25.956Z,6.67
2018-08-07T12:45:54.042Z,8.43
2018-08-07T12:48:22.093Z,7.77
2018-08-07T12:50:50.166Z,6.40
2018-08-07T12:53:18.341Z,6.83
2018-08-07T12:55:46.337Z,7.97
2018-08-07T12:58:14.432Z,7.23
2018-08-07T13:00:42.508Z,7.70
2018-08-07T13:03:10.568Z,7.33
2018-08-07T13:05:38.648Z,6.60
2018-08-07T13:08:06.709Z,7.10
2018-08-07T13:10:34.752Z,7.00
2018-08-07T13:13:02.797Z,7.77
2018-08-07T13:15:30.851Z,7.00
2018-08-07T13:17:58.896Z,7.60
2018-08-07T13:20:26.955Z,7.23
2018-08-07T13:22:54.992Z,7.70
2018-08-07T13:25:23.456Z,8.57
2018-08-07T13:27:51.509Z,7.60
2018-08-07T13:30:21.976Z,7.93
2018-08-07T13:32:50.027Z,7.90
2018-08-07T13:35:18.453Z,8.67
2018-08-07T13:37:47.872Z,8.23
2018-08-07T13:40:18.312Z,7.83
2018-08-07T13:42:46.378Z,8.33
2018-08-07T13:45:16.428Z,8.10
2018-08-07T13:47:44.603Z,7.80
2018-08-07T13:50:17.876Z,8.10
2018-08-07T13:52:46.611Z,7.57
2018-08-07T13:55:15.939Z,8.60
2018-08-07T13:57:44.318Z,7.77
2018-08-07T14:00:16.076Z,8.27
2018-08-07T14:02:44.687Z,7.70
2018-08-07T14:05:12.881Z,7.90
2018-08-07T14:07:40.949Z,8.60
2018-08-07T14:10:10.385Z,8.47
2018-08-07T14:12:38.473Z,9.27
2018-08-07T14:15:07.210Z,8.33
2018-08-07T14:17:35.265Z,8.17
2018-08-07T14:20:04.206Z,6.93
2018-08-07T14:22:32.272Z,7.10
2018-08-07T14:25:00.323Z,6.90
2018-08-07T14:27:28.389Z,7.03
2018-08-07T14:29:56.445Z,7.30
2018-08-07T14:32:24.540Z,7.30
2018-08-07T14:34:52.584Z,8.17
2018-08-07T14:37:20.633Z,7.90
2018-08-07T14:39:48.677Z,8.23
2018-08-07T14:42:16.854Z,8.47
2018-08-07T14:44:44.778Z,8.17
2018-08-07T14:47:12.825Z,9.37
2018-08-07T14:49:40.863Z,9.67
2018-08-07T14:52:09.043Z,9.60
2018-08-07T14:54:37.116Z,8.30
2018-08-07T14:57:05.156Z,8.40
2018-08-07T14:59:33.208Z,8.83
2018-08-07T15:02:01.264Z,9.33
2018-08-07T15:04:29.296Z,8.77
2018-08-07T15:06:57.362Z,9.13
2018-08-07T15:09:25.400Z,8.23
2018-08-07T15:11:53.480Z,7.07
2018-08-07T15:14:21.528Z,7.37
2018-08-07T15:16:49.632Z,7.60
2018-08-07T15:19:17.724Z,7.33
2018-08-07T15:21:45.832Z,7.67
2018-08-07T15:24:13.860Z,6.50
2018-08-07T15:26:41.924Z,6.93
2018-08-07T15:29:09.972Z,6.10
2018-08-07T15:31:38.092Z,6.33
2018-08-07T15:34:06.149Z,4.70
2018-08-07T15:36:34.212Z,6.27
2018-08-07T15:39:02.244Z,6.93
2018-08-07T15:41:30.284Z,5.63
2018-08-07T15:43:58.351Z,6.97
2018-08-07T15:46:26.388Z,6.80
2018-08-07T15:48:54.500Z,6.33
2018-08-07T15:51:22.552Z,6.87
2018-08-07T15:53:50.612Z,6.70
2018-08-07T15:56:18.672Z,6.33
2018-08-07T15:58:46.760Z,6.63
2018-08-07T16:01:14.821Z,6.70
2018-08-07T16:03:42.923Z,6.80
2018-08-07T16:06:10.993Z,7.47
2018-08-07T16:08:39.093Z,7.07
2018-08-07T16:11:07.164Z,6.93
2018-08-07T16:13:35.209Z,6.97
2018-08-07T16:18:37.903Z,6.20
2018-08-07T16:21:05.983Z,7.80
2018-08-07T16:23:34.001Z,6.93
2018-08-07T16:26:02.092Z,7.30
2018-08-07T16:28:30.140Z,7.73
2018-08-07T16:30:58.200Z,6.60
2018-08-07T16:33:26.241Z,7.17
2018-08-07T16:35:54.311Z,7.27
2018-08-07T16:38:22.404Z,6.83
2018-08-07T16:40:50.452Z,7.17
2018-08-07T16:43:18.536Z,5.90
2018-08-07T16:45:46.588Z,5.80
2018-08-07T16:48:14.657Z,6.93
2018-08-07T16:50:42.704Z,7.33
2018-08-07T16:53:10.811Z,6.40
2018-08-07T16:55:38.804Z,6.53
2018-08-07T16:58:06.885Z,5.40
2018-08-07T17:00:34.911Z,5.90
2018-08-07T17:03:02.980Z,5.50
2018-08-07T17:05:31.027Z,5.07
2018-08-07T17:07:59.132Z,5.50
2018-08-07T17:10:28.240Z,5.10
2018-08-07T17:12:56.301Z,5.23
2018-08-07T17:15:24.401Z,5.30
2018-08-07T17:17:52.528Z,4.30
2018-08-07T17:20:21.704Z,4.67
2018-08-07T17:22:50.316Z,5.27
2018-08-07T17:25:19.632Z,4.80
2018-08-07T17:27:48.369Z,4.20
2018-08-07T17:30:18.147Z,4.83
2018-08-07T17:32:46.548Z,5.00
2018-08-07T17:35:17.804Z,6.30
2018-08-07T17:37:46.259Z,5.03
2018-08-07T17:40:15.453Z,5.07
2018-08-07T17:42:43.540Z,4.33
2018-08-07T17:45:12.303Z,5.50
2018-08-07T17:47:40.353Z,5.13
2018-08-07T17:50:11.588Z,5.30
2018-08-07T17:52:39.876Z,5.30
2018-08-07T17:55:08.636Z,5.33
2018-08-07T17:57:36.998Z,5.53
2018-08-07T18:00:12.222Z,5.83
2018-08-07T18:02:40.316Z,5.63
2018-08-07T18:05:09.462Z,5.40
2018-08-07T18:07:37.577Z,6.00
2018-08-07T18:10:07.043Z,5.90
2018-08-07T18:12:35.133Z,6.00
2018-08-07T18:15:03.261Z,6.57
2018-08-07T18:17:31.328Z,5.70
2018-08-07T18:19:59.361Z,5.93
2018-08-07T18:22:27.427Z,5.97
2018-08-07T18:24:55.461Z,6.50
2018-08-07T18:27:23.564Z,5.70
2018-08-07T18:29:51.617Z,5.77
2018-08-07T18:32:19.688Z,6.10
2018-08-07T18:34:47.908Z,6.00
2018-08-07T18:37:15.967Z,6.47
2018-08-07T18:39:44.035Z,6.20
2018-08-07T18:42:12.129Z,6.77
2018-08-07T18:44:40.204Z,6.40
2018-08-07T18:47:08.213Z,5.60
2018-08-07T18:49:36.257Z,6.40
2018-08-07T18:52:04.321Z,6.70
2018-08-07T18:54:32.344Z,5.97
2018-08-07T18:57:00.400Z,7.07
2018-08-07T18:59:28.451Z,5.90
2018-08-07T19:01:56.509Z,5.50
2018-08-07T19:04:24.572Z,6.42
2018-08-07T19:06:52.700Z,6.37
2018-08-07T19:09:20.835Z,5.20
2018-08-07T19:11:48.832Z,5.77
2018-08-07T19:14:16.907Z,6.40
2018-08-07T19:16:44.952Z,5.87
2018-08-07T19:19:13.018Z,6.20
2018-08-07T19:21:41.080Z,6.40
2018-08-07T19:24:09.179Z,6.10
2018-08-07T19:26:37.220Z,18.20
2018-08-07T19:29:05.456Z,12.20
2018-08-07T19:31:33.536Z,7.07
2018-08-07T19:34:01.601Z,6.75
2018-08-07T19:36:29.688Z,5.72
2018-08-07T19:38:57.728Z,6.30
2018-08-07T19:41:25.832Z,5.97
2018-08-07T19:43:53.895Z,4.97
2018-08-07T19:46:21.944Z,5.53
2018-08-07T19:48:50.005Z,5.28
2018-08-07T19:51:18.052Z,5.20
2018-08-07T19:53:46.196Z,5.53
2018-08-07T19:56:14.238Z,5.42
2018-08-07T19:58:42.296Z,4.20
2018-08-07T20:01:10.343Z,5.10
2018-08-07T20:03:38.450Z,5.28
2018-08-07T20:06:06.496Z,5.85
2018-08-07T20:08:34.608Z,5.50
2018-08-07T20:11:02.683Z,4.80
2018-08-07T20:13:30.805Z,5.65
2018-08-07T20:15:58.921Z,5.00
2018-08-07T20:18:26.992Z,4.55
2018-08-07T20:20:55.091Z,5.25
2018-08-07T20:23:23.172Z,5.55
2018-08-07T20:25:51.364Z,5.17
2018-08-07T20:28:19.428Z,4.97
2018-08-07T20:30:47.588Z,5.20
2018-08-07T20:33:15.631Z,4.92
2018-08-07T20:35:50.356Z,4.90
2018-08-07T20:38:18.440Z,4.87
2018-08-07T20:40:46.503Z,4.47
2018-08-07T20:43:14.575Z,4.75
2018-08-07T20:45:43.005Z,5.10
2018-08-07T20:48:11.075Z,5.10
2018-08-07T20:50:39.317Z,5.83
2018-08-07T20:53:07.413Z,5.65
2018-08-07T20:55:35.554Z,5.87
2018-08-07T20:58:03.636Z,5.15
2018-08-07T21:00:31.716Z,5.70
2018-08-07T21:02:59.779Z,5.28
2018-08-07T21:05:27.840Z,5.65
2018-08-07T21:07:55.952Z,5.65
2018-08-07T21:10:25.237Z,5.90
2018-08-07T21:12:53.465Z,6.12
2018-08-07T21:15:21.524Z,4.85
2018-08-07T21:17:49.713Z,4.65
2018-08-07T21:20:19.214Z,5.45
2018-08-07T21:22:48.760Z,5.58
2018-08-07T21:25:18.361Z,5.28
2018-08-07T21:27:47.567Z,4.72
2018-08-07T21:30:31.628Z,5.05
2018-08-07T21:32:59.714Z,5.10
2018-08-07T21:35:27.776Z,5.10
2018-08-07T21:37:55.845Z,4.80
2018-08-07T21:40:24.589Z,5.58
2018-08-07T21:42:53.895Z,5.20
2018-08-07T21:45:21.969Z,4.92
2018-08-07T21:47:50.164Z,4.50
2018-08-07T21:50:19.793Z,4.97
2018-08-07T21:52:48.076Z,5.45
2018-08-07T21:55:17.217Z,6.25
2018-08-07T21:57:45.300Z,5.40
2018-08-07T22:00:15.932Z,5.80
2018-08-07T22:02:44.143Z,5.40
2018-08-07T22:05:12.389Z,5.22
2018-08-07T22:07:40.680Z,5.25
2018-08-07T22:10:16.149Z,4.42
2018-08-07T22:12:44.424Z,5.40
2018-08-07T22:15:13.437Z,5.30
2018-08-07T22:17:41.493Z,4.58
2018-08-07T22:20:10.628Z,5.15
2018-08-07T22:22:38.692Z,4.92
2018-08-07T22:25:07.873Z,4.78
2018-08-07T22:27:35.923Z,5.30
2018-08-07T22:30:06.196Z,5.55
2018-08-07T22:32:34.252Z,5.67
2018-08-07T22:35:02.327Z,5.53
2018-08-07T22:37:30.380Z,5.65
2018-08-07T22:39:58.444Z,5.05
2018-08-07T22:42:26.503Z,4.70
2018-08-07T22:44:54.572Z,4.35
2018-08-07T22:47:22.645Z,5.30
2018-08-07T22:49:50.708Z,5.20
2018-08-07T22:52:18.776Z,5.03
2018-08-07T22:54:46.836Z,5.35
2018-08-07T22:57:14.908Z,5.47
2018-08-07T22:59:42.976Z,5.05
2018-08-07T23:02:11.037Z,5.58
2018-08-07T23:04:39.236Z,5.40
2018-08-07T23:07:07.296Z,5.33
2018-08-07T23:09:35.432Z,5.53
2018-08-07T23:12:03.440Z,4.72
2018-08-07T23:14:31.496Z,5.65
2018-08-07T23:16:59.653Z,5.20
2018-08-07T23:19:27.841Z,4.80
2018-08-07T23:21:55.900Z,4.65
2018-08-07T23:24:23.969Z,4.70
2018-08-07T23:26:52.030Z,5.15
2018-08-07T23:29:20.089Z,4.62
2018-08-07T23:31:48.148Z,5.10
2018-08-07T23:34:16.224Z,5.55
2018-08-07T23:36:44.285Z,5.72
2018-08-07T23:39:12.352Z,4.78
2018-08-07T23:41:40.400Z,5.65
2018-08-07T23:44:08.476Z,5.03
2018-08-07T23:46:36.548Z,5.30
2018-08-07T23:49:04.617Z,5.67
2018-08-07T23:51:32.670Z,5.42
2018-08-07T23:54:00.723Z,5.03
2018-08-07T23:56:28.779Z,5.37
2018-08-07T23:58:56.840Z,5.20
